sensor_id;sensor_type;location;lat;lon;timestamp;pressure;altitude;pressure_sealevel;temperature;humidity
13952;BME280;39535;52.192;9.886;2023-03-04T00:00:53;101340.72;;;2.90;90.54
13952;BME280;39535;52.192;9.886;2023-03-04T00:03:19;101360.72;;;2.98;90.12
13952;BME280;39535;52.192;9.886;2023-03-04T00:05:45;101365.97;;;3.02;89.81
13952;BME280;39535;52.192;9.886;2023-03-04T00:08:12;101361.56;;;2.99;90.31
13952;BME280;39535;52.192;9.886;2023-03-04T00:10:41;101370.44;;;3.09;90.10
13952;BME280;39535;52.192;9.886;2023-03-04T00:13:07;101377.31;;;3.08;89.63
13952;BME280;39535;52.192;9.886;2023-03-04T00:15:34;101378.91;;;3.05;89.67
13952;BME280;39535;52.192;9.886;2023-03-04T00:18:00;101381.50;;;3.05;89.68
13952;BME280;39535;52.192;9.886;2023-03-04T00:20:26;101388.31;;;3.03;89.96
13952;BME280;39535;52.192;9.886;2023-03-04T00:22:53;101393.56;;;3.06;89.19
13952;BME280;39535;52.192;9.886;2023-03-04T00:25:19;101397.13;;;3.09;88.61
13952;BME280;39535;52.192;9.886;2023-03-04T00:27:47;101413.47;;;3.10;89.24
13952;BME280;39535;52.192;9.886;2023-03-04T00:30:13;101417.13;;;3.18;88.15
13952;BME280;39535;52.192;9.886;2023-03-04T00:32:40;101424.97;;;3.21;88.24
13952;BME280;39535;52.192;9.886;2023-03-04T00:35:07;101415.34;;;3.15;88.64
13952;BME280;39535;52.192;9.886;2023-03-04T00:37:33;101411.91;;;3.16;89.07
13952;BME280;39535;52.192;9.886;2023-03-04T00:39:59;101399.09;;;3.20;89.25
13952;BME280;39535;52.192;9.886;2023-03-04T00:42:26;101403.19;;;3.11;88.80
13952;BME280;39535;52.192;9.886;2023-03-04T00:44:53;101402.28;;;3.11;88.45
13952;BME280;39535;52.192;9.886;2023-03-04T00:47:20;101407.56;;;3.14;88.47
13952;BME280;39535;52.192;9.886;2023-03-04T00:49:46;101407.81;;;3.23;88.31
13952;BME280;39535;52.192;9.886;2023-03-04T00:52:12;101420.66;;;3.22;88.24
13952;BME280;39535;52.192;9.886;2023-03-04T00:54:39;101417.28;;;3.24;87.87
13952;BME280;39535;52.192;9.886;2023-03-04T00:57:05;101415.50;;;3.22;87.99
13952;BME280;39535;52.192;9.886;2023-03-04T00:59:31;101411.03;;;3.16;88.72
13952;BME280;39535;52.192;9.886;2023-03-04T01:01:59;101392.88;;;3.11;89.04
13952;BME280;39535;52.192;9.886;2023-03-04T01:04:25;101379.88;;;3.08;89.45
13952;BME280;39535;52.192;9.886;2023-03-04T01:06:52;101379.34;;;3.20;88.69
13952;BME280;39535;52.192;9.886;2023-03-04T01:09:18;101382.72;;;3.19;88.78
13952;BME280;39535;52.192;9.886;2023-03-04T01:11:45;101380.28;;;3.24;87.91
13952;BME280;39535;52.192;9.886;2023-03-04T01:14:11;101399.16;;;3.21;87.40
13952;BME280;39535;52.192;9.886;2023-03-04T01:16:37;101401.81;;;3.24;87.94
13952;BME280;39535;52.192;9.886;2023-03-04T01:19:05;101404.53;;;3.30;87.71
13952;BME280;39535;52.192;9.886;2023-03-04T01:21:31;101391.63;;;3.30;87.71
13952;BME280;39535;52.192;9.886;2023-03-04T01:23:57;101401.19;;;3.34;87.18
13952;BME280;39535;52.192;9.886;2023-03-04T01:26:24;101414.16;;;3.36;87.02
13952;BME280;39535;52.192;9.886;2023-03-04T01:28:50;101411.69;;;3.41;86.86
13952;BME280;39535;52.192;9.886;2023-03-04T01:31:17;101422.91;;;3.41;86.42
13952;BME280;39535;52.192;9.886;2023-03-04T01:33:43;101414.25;;;3.39;86.88
13952;BME280;39535;52.192;9.886;2023-03-04T01:36:11;101421.91;;;3.36;86.30
13952;BME280;39535;52.192;9.886;2023-03-04T01:38:37;101402.81;;;3.29;87.33
13952;BME280;39535;52.192;9.886;2023-03-04T01:41:04;101386.38;;;3.26;87.52
13952;BME280;39535;52.192;9.886;2023-03-04T01:43:34;101369.97;;;3.24;87.92
13952;BME280;39535;52.192;9.886;2023-03-04T01:46:01;101364.78;;;3.22;88.13
13952;BME280;39535;52.192;9.886;2023-03-04T01:48:30;101359.97;;;3.36;87.86
13952;BME280;39535;52.192;9.886;2023-03-04T01:50:58;101354.50;;;3.24;88.68
13952;BME280;39535;52.192;9.886;2023-03-04T01:53:29;101351.09;;;3.26;87.51
13952;BME280;39535;52.192;9.886;2023-03-04T01:55:57;101337.56;;;3.35;88.15
13952;BME280;39535;52.192;9.886;2023-03-04T01:58:25;101334.16;;;3.36;87.54
13952;BME280;39535;52.192;9.886;2023-03-04T02:00:53;101340.13;;;3.33;87.69
13952;BME280;39535;52.192;9.886;2023-03-04T02:03:20;101337.50;;;3.32;87.78
13952;BME280;39535;52.192;9.886;2023-03-04T02:05:49;101317.66;;;3.31;88.06
13952;BME280;39535;52.192;9.886;2023-03-04T02:08:18;101312.69;;;3.37;87.74
13952;BME280;39535;52.192;9.886;2023-03-04T02:10:47;101310.22;;;3.42;87.75
13952;BME280;39535;52.192;9.886;2023-03-04T02:13:14;101305.97;;;3.44;87.64
13952;BME280;39535;52.192;9.886;2023-03-04T02:15:41;101307.72;;;3.46;87.73
13952;BME280;39535;52.192;9.886;2023-03-04T02:18:13;101293.69;;;3.35;88.85
13952;BME280;39535;52.192;9.886;2023-03-04T02:20:46;101274.84;;;3.37;88.73
13952;BME280;39535;52.192;9.886;2023-03-04T02:23:16;101267.09;;;3.37;89.38
13952;BME280;39535;52.192;9.886;2023-03-04T02:25:52;101256.84;;;3.41;89.01
13952;BME280;39535;52.192;9.886;2023-03-04T02:28:21;101255.25;;;3.46;88.69
13952;BME280;39535;52.192;9.886;2023-03-04T02:30:48;101259.56;;;3.45;88.89
13952;BME280;39535;52.192;9.886;2023-03-04T02:33:16;101258.66;;;3.43;88.77
13952;BME280;39535;52.192;9.886;2023-03-04T02:35:42;101244.16;;;3.50;88.65
13952;BME280;39535;52.192;9.886;2023-03-04T02:38:09;101258.97;;;3.57;88.23
13952;BME280;39535;52.192;9.886;2023-03-04T02:40:38;101280.53;;;3.59;87.69
13952;BME280;39535;52.192;9.886;2023-03-04T02:43:08;101275.41;;;3.62;87.82
13952;BME280;39535;52.192;9.886;2023-03-04T02:45:40;101273.03;;;3.71;87.43
13952;BME280;39535;52.192;9.886;2023-03-04T02:48:08;101283.25;;;3.65;87.51
13952;BME280;39535;52.192;9.886;2023-03-04T02:50:37;101279.06;;;3.72;87.48
13952;BME280;39535;52.192;9.886;2023-03-04T02:53:05;101290.13;;;3.66;87.71
13952;BME280;39535;52.192;9.886;2023-03-04T02:55:32;101279.88;;;3.69;87.76
13952;BME280;39535;52.192;9.886;2023-03-04T02:57:58;101281.75;;;3.75;87.53
13952;BME280;39535;52.192;9.886;2023-03-04T03:00:25;101276.59;;;3.76;87.71
13952;BME280;39535;52.192;9.886;2023-03-04T03:02:53;101278.25;;;3.74;87.64
13952;BME280;39535;52.192;9.886;2023-03-04T03:05:21;101271.34;;;3.72;87.98
13952;BME280;39535;52.192;9.886;2023-03-04T03:07:47;101278.44;;;3.81;87.54
13952;BME280;39535;52.192;9.886;2023-03-04T03:10:14;101284.47;;;3.81;87.69
13952;BME280;39535;52.192;9.886;2023-03-04T03:12:40;101279.16;;;3.76;87.84
13952;BME280;39535;52.192;9.886;2023-03-04T03:15:07;101280.19;;;3.83;87.35
13952;BME280;39535;52.192;9.886;2023-03-04T03:17:34;101279.25;;;3.80;87.33
13952;BME280;39535;52.192;9.886;2023-03-04T03:20:02;101271.53;;;3.81;87.51
13952;BME280;39535;52.192;9.886;2023-03-04T03:22:29;101272.50;;;3.86;87.39
13952;BME280;39535;52.192;9.886;2023-03-04T03:24:55;101274.25;;;3.87;87.20
13952;BME280;39535;52.192;9.886;2023-03-04T03:27:22;101272.59;;;3.89;87.63
13952;BME280;39535;52.192;9.886;2023-03-04T03:29:48;101265.41;;;3.76;88.15
13952;BME280;39535;52.192;9.886;2023-03-04T03:32:14;101252.75;;;3.88;87.94
13952;BME280;39535;52.192;9.886;2023-03-04T03:34:41;101251.84;;;3.86;88.16
13952;BME280;39535;52.192;9.886;2023-03-04T03:37:09;101247.41;;;3.79;88.42
13952;BME280;39535;52.192;9.886;2023-03-04T03:39:35;101244.78;;;3.77;88.95
13952;BME280;39535;52.192;9.886;2023-03-04T03:42:02;101235.34;;;3.80;88.38
13952;BME280;39535;52.192;9.886;2023-03-04T03:44:29;101231.16;;;3.85;88.31
13952;BME280;39535;52.192;9.886;2023-03-04T03:46:55;101236.19;;;3.78;88.48
13952;BME280;39535;52.192;9.886;2023-03-04T03:49:22;101223.25;;;3.78;88.93
13952;BME280;39535;52.192;9.886;2023-03-04T03:51:48;101212.03;;;3.76;89.13
13952;BME280;39535;52.192;9.886;2023-03-04T03:54:16;101196.56;;;3.78;89.41
13952;BME280;39535;52.192;9.886;2023-03-04T03:56:42;101184.44;;;3.74;90.05
13952;BME280;39535;52.192;9.886;2023-03-04T03:59:09;101167.97;;;3.67;90.57
13952;BME280;39535;52.192;9.886;2023-03-04T04:01:35;101156.09;;;3.75;90.73
13952;BME280;39535;52.192;9.886;2023-03-04T04:04:02;101155.25;;;3.78;90.88
13952;BME280;39535;52.192;9.886;2023-03-04T04:06:28;101147.56;;;3.80;90.85
13952;BME280;39535;52.192;9.886;2023-03-04T04:08:55;101126.69;;;3.69;91.82
13952;BME280;39535;52.192;9.886;2023-03-04T04:11:22;101112.00;;;3.66;91.96
13952;BME280;39535;52.192;9.886;2023-03-04T04:13:49;101105.16;;;3.67;92.00
13952;BME280;39535;52.192;9.886;2023-03-04T04:16:15;101098.22;;;3.66;92.26
13952;BME280;39535;52.192;9.886;2023-03-04T04:18:41;101097.38;;;3.65;92.35
13952;BME280;39535;52.192;9.886;2023-03-04T04:21:08;101100.91;;;3.72;91.68
13952;BME280;39535;52.192;9.886;2023-03-04T04:23:34;101110.44;;;3.73;91.29
13952;BME280;39535;52.192;9.886;2023-03-04T04:26:00;101114.63;;;3.68;91.68
13952;BME280;39535;52.192;9.886;2023-03-04T04:28:28;101097.41;;;3.68;91.88
13952;BME280;39535;52.192;9.886;2023-03-04T04:30:54;101094.81;;;3.68;92.40
13952;BME280;39535;52.192;9.886;2023-03-04T04:33:21;101083.47;;;3.60;93.35
13952;BME280;39535;52.192;9.886;2023-03-04T04:35:47;101060.28;;;3.62;93.98
13952;BME280;39535;52.192;9.886;2023-03-04T04:38:13;101047.25;;;3.55;94.43
13952;BME280;39535;52.192;9.886;2023-03-04T04:40:40;101024.91;;;3.56;95.66
13952;BME280;39535;52.192;9.886;2023-03-04T04:43:07;101007.69;;;3.56;95.49
13952;BME280;39535;52.192;9.886;2023-03-04T04:45:35;100988.69;;;3.51;96.11
13952;BME280;39535;52.192;9.886;2023-03-04T04:48:01;100983.56;;;3.53;95.75
13952;BME280;39535;52.192;9.886;2023-03-04T04:50:28;100987.09;;;3.60;95.74
13952;BME280;39535;52.192;9.886;2023-03-04T04:52:54;100991.41;;;3.59;95.26
13952;BME280;39535;52.192;9.886;2023-03-04T04:55:20;100986.22;;;3.57;95.71
13952;BME280;39535;52.192;9.886;2023-03-04T04:57:47;100974.13;;;3.55;96.43
13952;BME280;39535;52.192;9.886;2023-03-04T05:00:13;100969.06;;;3.63;96.77
13952;BME280;39535;52.192;9.886;2023-03-04T05:02:41;100957.00;;;3.60;96.94
13952;BME280;39535;52.192;9.886;2023-03-04T05:05:08;100950.75;;;3.49;97.59
13952;BME280;39535;52.192;9.886;2023-03-04T05:07:35;100935.16;;;3.43;98.30
13952;BME280;39535;52.192;9.886;2023-03-04T05:10:02;100909.47;;;3.49;98.46
13952;BME280;39535;52.192;9.886;2023-03-04T05:12:28;100918.13;;;3.51;98.18
13952;BME280;39535;52.192;9.886;2023-03-04T05:14:55;100914.63;;;3.49;98.36
13952;BME280;39535;52.192;9.886;2023-03-04T05:17:21;100908.50;;;3.42;98.91
13952;BME280;39535;52.192;9.886;2023-03-04T05:19:49;100887.81;;;3.39;99.36
13952;BME280;39535;52.192;9.886;2023-03-04T05:22:15;100870.69;;;3.44;99.87
13952;BME280;39535;52.192;9.886;2023-03-04T05:24:41;100869.78;;;3.42;99.99
13952;BME280;39535;52.192;9.886;2023-03-04T05:27:08;100863.78;;;3.42;99.90
13952;BME280;39535;52.192;9.886;2023-03-04T05:29:34;100857.75;;;3.41;99.67
13952;BME280;39535;52.192;9.886;2023-03-04T05:32:00;100870.63;;;3.40;99.77
13952;BME280;39535;52.192;9.886;2023-03-04T05:34:27;100878.41;;;3.43;99.36
13952;BME280;39535;52.192;9.886;2023-03-04T05:36:54;100883.56;;;3.41;99.79
13952;BME280;39535;52.192;9.886;2023-03-04T05:39:21;100881.84;;;3.42;99.31
13952;BME280;39535;52.192;9.886;2023-03-04T05:41:47;100864.50;;;3.34;100.00
13952;BME280;39535;52.192;9.886;2023-03-04T05:44:13;100868.88;;;3.37;100.00
13952;BME280;39535;52.192;9.886;2023-03-04T05:46:39;100857.63;;;3.35;100.00
13952;BME280;39535;52.192;9.886;2023-03-04T05:49:06;100857.47;;;3.26;100.00
13952;BME280;39535;52.192;9.886;2023-03-04T05:51:32;100854.94;;;3.27;100.00
13952;BME280;39535;52.192;9.886;2023-03-04T05:54:00;100848.81;;;3.22;100.00
13952;BME280;39535;52.192;9.886;2023-03-04T05:56:26;100831.63;;;3.23;100.00
13952;BME280;39535;52.192;9.886;2023-03-04T05:58:55;100834.28;;;3.29;100.00
13952;BME280;39535;52.192;9.886;2023-03-04T06:01:22;100836.84;;;3.26;100.00
13952;BME280;39535;52.192;9.886;2023-03-04T06:03:48;100843.75;;;3.28;100.00
13952;BME280;39535;52.192;9.886;2023-03-04T06:06:15;100842.03;;;3.29;100.00
13952;BME280;39535;52.192;9.886;2023-03-04T06:08:41;100848.97;;;3.31;100.00
13952;BME280;39535;52.192;9.886;2023-03-04T06:11:09;100843.03;;;3.35;100.00
13952;BME280;39535;52.192;9.886;2023-03-04T06:13:35;100829.94;;;3.23;100.00
13952;BME280;39535;52.192;9.886;2023-03-04T06:16:02;100830.00;;;3.28;100.00
13952;BME280;39535;52.192;9.886;2023-03-04T06:18:29;100819.59;;;3.23;100.00
13952;BME280;39535;52.192;9.886;2023-03-04T06:20:56;100810.94;;;3.20;100.00
13952;BME280;39535;52.192;9.886;2023-03-04T06:23:23;100815.34;;;3.25;100.00
13952;BME280;39535;52.192;9.886;2023-03-04T06:25:51;100812.72;;;3.24;100.00
13952;BME280;39535;52.192;9.886;2023-03-04T06:28:18;100807.66;;;3.30;100.00
13952;BME280;39535;52.192;9.886;2023-03-04T06:30:45;100807.59;;;3.25;100.00
13952;BME280;39535;52.192;9.886;2023-03-04T06:33:11;100814.63;;;3.34;100.00
13952;BME280;39535;52.192;9.886;2023-03-04T06:35:37;100816.41;;;3.38;100.00
13952;BME280;39535;52.192;9.886;2023-03-04T06:40:31;100818.84;;;3.30;100.00
13952;BME280;39535;52.192;9.886;2023-03-04T06:42:57;100812.00;;;3.32;100.00
13952;BME280;39535;52.192;9.886;2023-03-04T06:45:25;100805.22;;;3.37;100.00
13952;BME280;39535;52.192;9.886;2023-03-04T06:47:51;100801.69;;;3.32;100.00
13952;BME280;39535;52.192;9.886;2023-03-04T06:50:18;100792.06;;;3.22;100.00
13952;BME280;39535;52.192;9.886;2023-03-04T06:52:44;100785.97;;;3.18;100.00
13952;BME280;39535;52.192;9.886;2023-03-04T06:55:11;100777.50;;;3.26;100.00
13952;BME280;39535;52.192;9.886;2023-03-04T06:57:38;100783.69;;;3.35;100.00
13952;BME280;39535;52.192;9.886;2023-03-04T07:00:05;100790.59;;;3.38;100.00
13952;BME280;39535;52.192;9.886;2023-03-04T07:02:33;100802.78;;;3.45;100.00
13952;BME280;39535;52.192;9.886;2023-03-04T07:04:59;100812.31;;;3.52;100.00
13952;BME280;39535;52.192;9.886;2023-03-04T07:07:26;100808.78;;;3.46;100.00
13952;BME280;39535;52.192;9.886;2023-03-04T07:09:52;100814.09;;;3.56;100.00
13952;BME280;39535;52.192;9.886;2023-03-04T07:12:19;100814.97;;;3.55;100.00
13952;BME280;39535;52.192;9.886;2023-03-04T07:14:45;100815.94;;;3.64;100.00
13952;BME280;39535;52.192;9.886;2023-03-04T07:17:11;100824.69;;;3.72;100.00
13952;BME280;39535;52.192;9.886;2023-03-04T07:19:39;100835.06;;;3.75;100.00
13952;BME280;39535;52.192;9.886;2023-03-04T07:22:06;100831.63;;;3.76;100.00
13952;BME280;39535;52.192;9.886;2023-03-04T07:24:32;100830.66;;;3.69;100.00
13952;BME280;39535;52.192;9.886;2023-03-04T07:26:58;100834.09;;;3.70;100.00
13952;BME280;39535;52.192;9.886;2023-03-04T07:29:25;100832.41;;;3.72;100.00
13952;BME280;39535;52.192;9.886;2023-03-04T07:31:51;100835.03;;;3.73;100.00
13952;BME280;39535;52.192;9.886;2023-03-04T07:34:17;100844.63;;;3.82;100.00
13952;BME280;39535;52.192;9.886;2023-03-04T07:36:45;100849.97;;;3.93;100.00
13952;BME280;39535;52.192;9.886;2023-03-04T07:39:11;100864.63;;;3.95;100.00
13952;BME280;39535;52.192;9.886;2023-03-04T07:41:39;100868.84;;;3.90;100.00
13952;BME280;39535;52.192;9.886;2023-03-04T07:44:06;100868.81;;;3.87;100.00
13952;BME280;39535;52.192;9.886;2023-03-04T07:46:33;100835.25;;;3.90;100.00
13952;BME280;39535;52.192;9.886;2023-03-04T07:49:00;100810.47;;;4.02;100.00
13952;BME280;39535;52.192;9.886;2023-03-04T07:51:26;100811.34;;;4.01;100.00
13952;BME280;39535;52.192;9.886;2023-03-04T07:53:56;100823.41;;;4.03;100.00
13952;BME280;39535;52.192;9.886;2023-03-04T07:56:26;100818.09;;;3.94;100.00
13952;BME280;39535;52.192;9.886;2023-03-04T07:58:52;100833.78;;;4.06;100.00
13952;BME280;39535;52.192;9.886;2023-03-04T08:01:22;100827.09;;;4.22;100.00
13952;BME280;39535;52.192;9.886;2023-03-04T08:03:48;100849.47;;;4.20;100.00
13952;BME280;39535;52.192;9.886;2023-03-04T08:06:16;100864.28;;;4.30;100.00
13952;BME280;39535;52.192;9.886;2023-03-04T08:08:43;100877.19;;;4.32;100.00
13952;BME280;39535;52.192;9.886;2023-03-04T08:11:13;100855.63;;;4.28;100.00
13952;BME280;39535;52.192;9.886;2023-03-04T08:13:40;100866.75;;;4.23;100.00
13952;BME280;39535;52.192;9.886;2023-03-04T08:16:06;100872.03;;;4.32;100.00
13952;BME280;39535;52.192;9.886;2023-03-04T08:18:33;100869.50;;;4.35;100.00
13952;BME280;39535;52.192;9.886;2023-03-04T08:20:59;100870.31;;;4.34;100.00
13952;BME280;39535;52.192;9.886;2023-03-04T08:23:26;100873.81;;;4.34;100.00
13952;BME280;39535;52.192;9.886;2023-03-04T08:25:52;100874.78;;;4.46;100.00
13952;BME280;39535;52.192;9.886;2023-03-04T08:28:20;100896.47;;;4.55;100.00
13952;BME280;39535;52.192;9.886;2023-03-04T08:30:52;100917.09;;;4.51;99.32
13952;BME280;39535;52.192;9.886;2023-03-04T08:33:19;100937.97;;;4.66;99.05
13952;BME280;39535;52.192;9.886;2023-03-04T08:35:45;100959.53;;;4.67;98.85
13952;BME280;39535;52.192;9.886;2023-03-04T08:38:11;100958.75;;;4.72;99.31
13952;BME280;39535;52.192;9.886;2023-03-04T08:40:38;100916.94;;;4.38;100.00
13952;BME280;39535;52.192;9.886;2023-03-04T08:43:04;100826.38;;;4.34;100.00
13952;BME280;39535;52.192;9.886;2023-03-04T08:45:32;100777.13;;;4.20;100.00
13952;BME280;39535;52.192;9.886;2023-03-04T08:47:58;100746.03;;;4.11;100.00
13952;BME280;39535;52.192;9.886;2023-03-04T08:50:24;100730.53;;;4.14;100.00
13952;BME280;39535;52.192;9.886;2023-03-04T08:52:52;100719.47;;;4.23;100.00
13952;BME280;39535;52.192;9.886;2023-03-04T08:55:18;100732.38;;;4.21;100.00
13952;BME280;39535;52.192;9.886;2023-03-04T08:57:45;100744.44;;;4.24;100.00
13952;BME280;39535;52.192;9.886;2023-03-04T09:00:12;100743.84;;;4.48;100.00
13952;BME280;39535;52.192;9.886;2023-03-04T09:02:40;100775.72;;;4.47;100.00
13952;BME280;39535;52.192;9.886;2023-03-04T09:05:07;100804.31;;;4.59;100.00
13952;BME280;39535;52.192;9.886;2023-03-04T09:07:34;100829.25;;;4.54;100.00
13952;BME280;39535;52.192;9.886;2023-03-04T09:10:00;100829.25;;;4.54;100.00
13952;BME280;39535;52.192;9.886;2023-03-04T09:12:27;100824.97;;;4.56;100.00
13952;BME280;39535;52.192;9.886;2023-03-04T09:14:53;100829.31;;;4.60;100.00
13952;BME280;39535;52.192;9.886;2023-03-04T09:17:19;100856.94;;;4.64;100.00
13952;BME280;39535;52.192;9.886;2023-03-04T09:19:47;100880.38;;;4.78;100.00
13952;BME280;39535;52.192;9.886;2023-03-04T09:22:13;100887.28;;;4.79;100.00
13952;BME280;39535;52.192;9.886;2023-03-04T09:24:40;100898.59;;;4.89;100.00
13952;BME280;39535;52.192;9.886;2023-03-04T09:27:08;100907.13;;;4.80;100.00
13952;BME280;39535;52.192;9.886;2023-03-04T09:29:34;100912.34;;;4.85;100.00
13952;BME280;39535;52.192;9.886;2023-03-04T09:32:00;100909.06;;;4.98;100.00
13952;BME280;39535;52.192;9.886;2023-03-04T09:34:27;100931.50;;;4.97;100.00
13952;BME280;39535;52.192;9.886;2023-03-04T09:36:55;100934.22;;;5.10;100.00
13952;BME280;39535;52.192;9.886;2023-03-04T09:39:21;100937.56;;;5.03;100.00
13952;BME280;39535;52.192;9.886;2023-03-04T09:41:49;100932.38;;;5.01;100.00
13952;BME280;39535;52.192;9.886;2023-03-04T09:44:22;100900.47;;;5.01;100.00
13952;BME280;39535;52.192;9.886;2023-03-04T09:46:50;100874.63;;;5.04;100.00
13952;BME280;39535;52.192;9.886;2023-03-04T09:49:18;100853.91;;;5.02;100.00
13952;BME280;39535;52.192;9.886;2023-03-04T09:51:51;100842.69;;;5.00;100.00
13952;BME280;39535;52.192;9.886;2023-03-04T09:54:28;100823.50;;;4.81;100.00
13952;BME280;39535;52.192;9.886;2023-03-04T09:57:00;100802.06;;;4.91;100.00
13952;BME280;39535;52.192;9.886;2023-03-04T09:59:34;100770.88;;;4.76;100.00
13952;BME280;39535;52.192;9.886;2023-03-04T10:02:19;100746.72;;;4.74;100.00
13952;BME280;39535;52.192;9.886;2023-03-04T10:04:55;100740.59;;;4.66;100.00
13952;BME280;39535;52.192;9.886;2023-03-04T10:07:27;100724.09;;;4.53;100.00
13952;BME280;39535;52.192;9.886;2023-03-04T10:10:02;100721.66;;;4.67;100.00
13952;BME280;39535;52.192;9.886;2023-03-04T10:12:31;100719.97;;;4.73;100.00
13952;BME280;39535;52.192;9.886;2023-03-04T10:15:02;100727.75;;;4.75;100.00
13952;BME280;39535;52.192;9.886;2023-03-04T10:17:34;100730.47;;;4.86;100.00
13952;BME280;39535;52.192;9.886;2023-03-04T10:20:04;100762.44;;;4.95;100.00
13952;BME280;39535;52.192;9.886;2023-03-04T10:22:34;100793.50;;;4.98;100.00
13952;BME280;39535;52.192;9.886;2023-03-04T10:25:15;100831.63;;;5.13;100.00
13952;BME280;39535;52.192;9.886;2023-03-04T10:27:42;100873.81;;;5.08;100.00
13952;BME280;39535;52.192;9.886;2023-03-04T10:30:19;100912.63;;;5.09;100.00
13952;BME280;39535;52.192;9.886;2023-03-04T10:32:48;100980.56;;;4.93;97.74
13952;BME280;39535;52.192;9.886;2023-03-04T10:35:14;101007.28;;;4.92;96.43
13952;BME280;39535;52.192;9.886;2023-03-04T10:37:45;101056.47;;;4.95;94.23
13952;BME280;39535;52.192;9.886;2023-03-04T10:40:22;101087.66;;;5.04;93.88
13952;BME280;39535;52.192;9.886;2023-03-04T10:42:50;101121.22;;;5.01;91.95
13952;BME280;39535;52.192;9.886;2023-03-04T10:45:22;101180.78;;;5.03;90.54
13952;BME280;39535;52.192;9.886;2023-03-04T10:47:52;101210.28;;;5.14;88.91
13952;BME280;39535;52.192;9.886;2023-03-04T10:50:24;101265.69;;;5.25;85.85
13952;BME280;39535;52.192;9.886;2023-03-04T10:52:51;101333.22;;;5.41;83.66
13952;BME280;39535;52.192;9.886;2023-03-04T10:55:23;101368.06;;;5.60;83.34
13952;BME280;39535;52.192;9.886;2023-03-04T10:57:53;101387.19;;;5.68;84.42
13952;BME280;39535;52.192;9.886;2023-03-04T11:00:28;101436.44;;;5.69;81.47
13952;BME280;39535;52.192;9.886;2023-03-04T11:03:18;101459.94;;;5.80;82.54
13952;BME280;39535;52.192;9.886;2023-03-04T11:05:45;101479.72;;;5.75;80.65
13952;BME280;39535;52.192;9.886;2023-03-04T11:08:16;101489.44;;;5.88;80.65
13952;BME280;39535;52.192;9.886;2023-03-04T11:10:44;101516.28;;;5.92;80.30
13952;BME280;39535;52.192;9.886;2023-03-04T11:13:14;101524.22;;;6.00;80.01
13952;BME280;39535;52.192;9.886;2023-03-04T11:15:50;101537.97;;;5.95;79.98
13952;BME280;39535;52.192;9.886;2023-03-04T11:18:19;101550.72;;;5.86;78.77
13952;BME280;39535;52.192;9.886;2023-03-04T11:20:51;101567.81;;;5.76;79.55
13952;BME280;39535;52.192;9.886;2023-03-04T11:23:22;101559.91;;;5.70;80.10
13952;BME280;39535;52.192;9.886;2023-03-04T11:25:56;101545.88;;;5.57;80.31
13952;BME280;39535;52.192;9.886;2023-03-04T11:28:30;101506.28;;;5.65;81.39
13952;BME280;39535;52.192;9.886;2023-03-04T11:31:04;101497.72;;;5.69;81.04
13952;BME280;39535;52.192;9.886;2023-03-04T11:33:36;101457.13;;;5.68;82.45
13952;BME280;39535;52.192;9.886;2023-03-04T11:36:19;101449.47;;;5.74;82.81
13952;BME280;39535;52.192;9.886;2023-03-04T11:38:49;101427.09;;;5.77;82.13
13952;BME280;39535;52.192;9.886;2023-03-04T11:41:21;101417.97;;;6.00;82.28
13952;BME280;39535;52.192;9.886;2023-03-04T11:43:50;101390.75;;;6.29;83.67
13952;BME280;39535;52.192;9.886;2023-03-04T11:46:42;101410.94;;;6.53;81.84
13952;BME280;39535;52.192;9.886;2023-03-04T11:49:33;101433.31;;;6.45;80.08
13952;BME280;39535;52.192;9.886;2023-03-04T11:52:11;101445.84;;;6.77;79.68
13952;BME280;39535;52.192;9.886;2023-03-04T11:54:45;101452.88;;;6.84;79.78
13952;BME280;39535;52.192;9.886;2023-03-04T11:57:29;101486.06;;;6.44;79.68
13952;BME280;39535;52.192;9.886;2023-03-04T12:00:15;101463.25;;;6.23;81.89
13952;BME280;39535;52.192;9.886;2023-03-04T12:02:58;101391.88;;;5.89;84.97
13952;BME280;39535;52.192;9.886;2023-03-04T12:05:39;101351.91;;;5.76;82.75
13952;BME280;39535;52.192;9.886;2023-03-04T12:08:29;101385.72;;;5.84;81.63
13952;BME280;39535;52.192;9.886;2023-03-04T12:11:01;101378.81;;;5.84;81.87
13952;BME280;39535;52.192;9.886;2023-03-04T12:13:42;101375.19;;;5.73;82.61
13952;BME280;39535;52.192;9.886;2023-03-04T12:16:24;101329.56;;;5.81;84.01
13952;BME280;39535;52.192;9.886;2023-03-04T12:19:05;101287.81;;;6.24;83.53
13952;BME280;39535;52.192;9.886;2023-03-04T12:21:59;101290.63;;;6.39;82.83
13952;BME280;39535;52.192;9.886;2023-03-04T12:24:40;101313.78;;;6.25;82.28
13952;BME280;39535;52.192;9.886;2023-03-04T12:27:21;101323.03;;;6.05;81.69
13952;BME280;39535;52.192;9.886;2023-03-04T12:29:55;101303.56;;;5.76;84.26
13952;BME280;39535;52.192;9.886;2023-03-04T12:32:30;101291.34;;;5.68;83.73
13952;BME280;39535;52.192;9.886;2023-03-04T12:35:16;101259.13;;;5.49;85.65
13952;BME280;39535;52.192;9.886;2023-03-04T12:38:00;101219.44;;;5.50;85.30
13952;BME280;39535;52.192;9.886;2023-03-04T12:40:37;101229.31;;;5.75;84.66
13952;BME280;39535;52.192;9.886;2023-03-04T12:43:21;101268.31;;;5.85;82.63
13952;BME280;39535;52.192;9.886;2023-03-04T12:46:00;101274.72;;;6.11;82.79
13952;BME280;39535;52.192;9.886;2023-03-04T12:48:30;101337.81;;;6.13;78.95
13952;BME280;39535;52.192;9.886;2023-03-04T12:51:05;101390.06;;;5.86;78.07
13952;BME280;39535;52.192;9.886;2023-03-04T12:53:42;101410.53;;;5.69;78.59
13952;BME280;39535;52.192;9.886;2023-03-04T12:56:21;101412.78;;;5.49;77.90
13952;BME280;39535;52.192;9.886;2023-03-04T12:58:48;101419.91;;;5.63;78.25
13952;BME280;39535;52.192;9.886;2023-03-04T13:01:21;101416.66;;;5.74;77.97
13952;BME280;39535;52.192;9.886;2023-03-04T13:03:54;101448.47;;;5.66;77.53
13952;BME280;39535;52.192;9.886;2023-03-04T13:06:30;101451.31;;;5.83;77.48
13952;BME280;39535;52.192;9.886;2023-03-04T13:09:05;101448.03;;;5.91;76.29